Time;durP1;ratioP1;P1;durP2;ratioP2;P2;SDS_P1;SDS_P2;PMS_P1;PMS_P2;Temp;Humidity;BMP_temperature;BMP_pressure;BME280_temperature;BME280_humidity;BME280_pressure;Samples;Min_cycle;Max_cycle;Signal;HPM_P1;HPM_P2
2021/10/31 00:02:10;;;;;;;0.10;0.10;;;13.20;71.60;;;;;;5011620;28;20057;-74
2021/10/31 00:04:36;;;;;;;0.20;0.20;;;13.20;70.10;;;;;;5011536;28;20018;-74
2021/10/31 00:07:02;;;;;;;0.20;0.20;;;13.00;70.10;;;;;;5011700;28;20018;-73
2021/10/31 00:09:29;;;;;;;0.20;0.20;;;13.00;70.80;;;;;;5011874;28;20025;-74
2021/10/31 00:11:55;;;;;;;0.20;0.20;;;13.00;70.80;;;;;;5011720;28;20022;-74
2021/10/31 00:14:21;;;;;;;0.20;0.20;;;12.90;69.80;;;;;;5011622;28;20036;-74
2021/10/31 00:16:47;;;;;;;0.20;0.20;;;13.00;70.40;;;;;;5011296;28;20028;-73
2021/10/31 00:19:13;;;;;;;0.13;0.13;;;13.00;69.10;;;;;;5011496;28;20026;-74
2021/10/31 00:21:39;;;;;;;0.20;0.20;;;13.00;69.90;;;;;;5011439;28;20544;-73
2021/10/31 00:24:05;;;;;;;0.10;0.10;;;12.90;69.60;;;;;;5011537;28;20026;-74
2021/10/31 00:26:31;;;;;;;0.20;0.20;;;12.70;70.50;;;;;;5011266;28;20053;-73
2021/10/31 00:28:56;;;;;;;0.10;0.10;;;12.60;71.90;;;;;;5013126;28;20026;-73
2021/10/31 00:31:22;;;;;;;0.17;0.17;;;12.70;71.90;;;;;;5014877;28;20030;-73
2021/10/31 00:33:48;;;;;;;0.20;0.20;;;12.60;72.40;;;;;;5014883;28;20033;-74
2021/10/31 00:36:13;;;;;;;0.10;0.10;;;12.70;72.20;;;;;;5014815;28;20026;-73
2021/10/31 00:38:39;;;;;;;0.20;0.20;;;12.80;72.20;;;;;;5014762;28;20045;-74
2021/10/31 00:41:05;;;;;;;0.20;0.20;;;12.80;71.90;;;;;;5014797;28;20527;-74
2021/10/31 00:43:31;;;;;;;0.20;0.20;;;12.90;71.60;;;;;;5014655;28;20034;-73
2021/10/31 00:45:57;;;;;;;0.20;0.20;;;12.80;71.80;;;;;;5014492;28;20029;-73
2021/10/31 00:48:23;;;;;;;0.20;0.20;;;12.70;71.90;;;;;;5014606;28;20018;-74
2021/10/31 00:50:50;;;;;;;0.20;0.20;;;12.50;72.80;;;;;;5014540;28;20022;-74
2021/10/31 00:53:17;;;;;;;0.20;0.20;;;12.40;74.00;;;;;;5014587;28;20037;-73
2021/10/31 00:55:43;;;;;;;0.20;0.20;;;12.40;73.70;;;;;;5014471;28;20436;-74
2021/10/31 00:58:10;;;;;;;0.40;0.40;;;12.40;74.60;;;;;;5014534;28;20037;-74
2021/10/31 01:00:36;;;;;;;0.10;0.10;;;12.50;73.30;;;;;;5014351;28;20029;-74
2021/10/31 01:03:02;;;;;;;0.20;0.20;;;12.60;73.80;;;;;;5013158;28;20065;-73
2021/10/31 01:05:32;;;;;;;0.63;0.63;;;12.50;73.60;;;;;;5014135;28;20072;-73
2021/10/31 01:08:45;;;;;;;2.50;2.40;;;12.30;74.30;;;;;;5014312;28;20020;-74
2021/10/31 01:11:40;;;;;;;0.20;0.20;;;12.00;75.50;;;;;;4953605;29;20103;-74
2021/10/31 01:14:24;;;;;;;0.85;0.85;;;11.90;76.40;;;;;;5014217;28;20033;-74
2021/10/31 01:17:05;;;;;;;0.20;0.20;;;11.90;76.90;;;;;;5014103;28;20037;-73
2021/10/31 01:19:36;;;;;;;0.43;0.43;;;12.00;76.90;;;;;;5013864;28;20032;-74
2021/10/31 01:22:25;;;;;;;0.20;0.20;;;12.00;77.40;;;;;;5012745;28;20385;-73
2021/10/31 01:25:08;;;;;;;1.65;1.65;;;12.00;77.70;;;;;;5013824;28;20064;-73
2021/10/31 01:27:44;;;;;;;0.30;0.30;;;11.90;78.30;;;;;;5013871;28;20485;-73
2021/10/31 01:30:34;;;;;;;0.30;0.30;;;12.00;78.40;;;;;;5013908;28;20026;-74
2021/10/31 01:33:11;;;;;;;0.20;0.20;;;12.10;78.30;;;;;;5013863;28;20512;-73
2021/10/31 01:35:51;;;;;;;0.20;0.20;;;12.10;77.70;;;;;;5013631;28;20026;-74
2021/10/31 01:38:55;;;;;;;0.22;0.22;;;11.90;77.60;;;;;;5013240;28;20515;-73
2021/10/31 01:41:49;;;;;;;0.30;0.30;;;11.80;78.30;;;;;;5013703;28;20025;-74
2021/10/31 01:44:30;;;;;;;0.20;0.20;;;11.20;79.50;;;;;;5013652;28;20550;-74
2021/10/31 01:47:09;;;;;;;0.20;0.20;;;10.90;79.60;;;;;;5013560;28;20025;-74
2021/10/31 01:50:07;;;;;;;0.20;0.20;;;10.90;82.80;;;;;;5013427;28;20037;-74
2021/10/31 01:52:40;;;;;;;1.45;1.35;;;10.90;81.60;;;;;;4980258;28;20128;-73
2021/10/31 01:55:12;;;;;;;0.20;0.20;;;11.00;82.20;;;;;;5013414;28;20508;-73
2021/10/31 01:57:43;;;;;;;0.30;0.30;;;10.70;80.90;;;;;;5013603;28;20029;-73
2021/10/31 02:00:14;;;;;;;2.20;1.25;;;10.50;81.90;;;;;;5013679;28;20049;-74
2021/10/31 02:02:44;;;;;;;0.20;0.20;;;10.50;82.50;;;;;;5013291;28;20079;-73
2021/10/31 02:05:12;;;;;;;0.28;0.28;;;10.40;83.60;;;;;;5012971;28;20051;-74
2021/10/31 02:07:43;;;;;;;0.20;0.20;;;10.50;83.70;;;;;;5013198;28;20061;-73
2021/10/31 02:10:12;;;;;;;0.20;0.20;;;10.60;82.30;;;;;;5013096;28;20026;-73
2021/10/31 02:12:41;;;;;;;0.20;0.20;;;10.40;83.10;;;;;;5013086;28;20393;-73
2021/10/31 02:15:12;;;;;;;0.20;0.20;;;10.20;83.40;;;;;;5012965;28;20071;-74
2021/10/31 02:17:39;;;;;;;0.47;0.47;;;10.10;83.20;;;;;;5012976;28;20022;-73
2021/10/31 02:20:06;;;;;;;2.20;0.60;;;10.00;83.90;;;;;;5012829;28;20034;-73
2021/10/31 02:22:34;;;;;;;0.30;0.30;;;10.10;82.80;;;;;;5012843;28;20112;-74
2021/10/31 02:25:01;;;;;;;0.20;0.20;;;10.30;84.10;;;;;;5011526;28;20034;-73
2021/10/31 02:27:31;;;;;;;0.30;0.30;;;10.30;83.60;;;;;;5012815;28;20026;-74
2021/10/31 02:29:58;;;;;;;0.20;0.20;;;10.40;83.40;;;;;;5012757;28;20022;-74
2021/10/31 02:32:28;;;;;;;0.20;0.20;;;10.40;83.00;;;;;;5012623;28;20034;-73
2021/10/31 02:34:55;;;;;;;1.63;1.58;;;10.40;83.80;;;;;;5012589;28;20036;-74
2021/10/31 02:37:21;;;;;;;0.40;0.40;;;10.60;83.40;;;;;;5012675;28;20025;-74
2021/10/31 02:39:47;;;;;;;0.20;0.20;;;10.60;82.90;;;;;;5011294;28;20034;-74
2021/10/31 02:42:13;;;;;;;0.20;0.20;;;10.60;83.40;;;;;;5011250;28;20122;-73
2021/10/31 02:44:40;;;;;;;0.20;0.20;;;10.60;83.30;;;;;;5012365;28;20057;-74
2021/10/31 02:47:08;;;;;;;0.30;0.30;;;10.70;83.10;;;;;;5013044;28;20029;-74
2021/10/31 02:49:36;;;;;;;0.20;0.20;;;10.80;82.70;;;;;;5012043;28;20037;-74
2021/10/31 02:52:05;;;;;;;0.20;0.20;;;10.80;82.20;;;;;;5012355;28;20490;-74
2021/10/31 02:54:45;;;;;;;0.30;0.30;;;10.40;83.20;;;;;;5012195;28;20065;-73
2021/10/31 02:57:26;;;;;;;0.20;0.20;;;10.60;84.10;;;;;;5012313;28;20053;-74
2021/10/31 02:59:56;;;;;;;0.20;0.20;;;10.70;83.20;;;;;;5011127;28;20026;-74
2021/10/31 03:02:26;;;;;;;0.75;0.75;;;10.60;83.40;;;;;;5011029;28;20076;-73
2021/10/31 03:04:52;;;;;;;0.20;0.20;;;10.50;84.30;;;;;;5012308;28;20022;-74
2021/10/31 03:07:20;;;;;;;0.20;0.20;;;10.40;84.10;;;;;;5012376;28;20045;-73
2021/10/31 03:09:47;;;;;;;0.20;0.20;;;10.30;84.90;;;;;;5010842;28;20030;-74
2021/10/31 03:12:13;;;;;;;0.20;0.20;;;10.20;86.20;;;;;;5012307;28;20038;-73
2021/10/31 03:14:39;;;;;;;0.20;0.20;;;10.20;86.80;;;;;;5012062;28;20025;-73
2021/10/31 03:17:06;;;;;;;0.20;0.20;;;10.20;86.60;;;;;;5012083;28;20041;-74
2021/10/31 03:19:33;;;;;;;0.20;0.20;;;10.20;85.10;;;;;;5012085;28;20385;-74
2021/10/31 03:21:59;;;;;;;1.00;1.00;;;10.00;86.20;;;;;;5012101;28;20481;-74
2021/10/31 03:24:25;;;;;;;0.20;0.20;;;10.00;86.30;;;;;;5012151;28;20018;-74
2021/10/31 03:26:51;;;;;;;0.17;0.17;;;9.90;87.00;;;;;;5012107;28;20113;-74
2021/10/31 03:29:18;;;;;;;0.30;0.30;;;10.00;87.00;;;;;;5012117;28;20089;-74
2021/10/31 03:31:44;;;;;;;0.22;0.22;;;10.10;85.90;;;;;;5010669;28;20500;-74
2021/10/31 03:34:10;;;;;;;0.20;0.20;;;10.00;86.50;;;;;;5012078;28;20026;-73
2021/10/31 03:36:35;;;;;;;0.30;0.30;;;10.10;86.70;;;;;;5011883;28;20071;-74
2021/10/31 03:39:02;;;;;;;0.20;0.20;;;10.10;86.00;;;;;;5012001;28;20022;-74
2021/10/31 03:41:27;;;;;;;0.20;0.20;;;10.00;86.40;;;;;;5012006;28;20072;-73
2021/10/31 03:43:53;;;;;;;0.25;0.25;;;10.00;87.20;;;;;;5011914;28;20034;-73
2021/10/31 03:46:19;;;;;;;0.20;0.20;;;10.20;85.80;;;;;;5011794;28;20018;-74
2021/10/31 03:48:44;;;;;;;0.17;0.17;;;10.30;85.20;;;;;;5011907;28;20421;-74
2021/10/31 03:51:10;;;;;;;0.20;0.20;;;10.30;85.50;;;;;;5011872;28;20033;-74
2021/10/31 03:53:36;;;;;;;1.20;1.20;;;10.20;86.30;;;;;;5011786;28;20073;-74
2021/10/31 03:56:02;;;;;;;0.20;0.20;;;10.30;86.20;;;;;;5011672;28;20093;-74
2021/10/31 03:58:28;;;;;;;0.20;0.20;;;10.40;85.50;;;;;;5011795;28;20030;-74
2021/10/31 04:00:53;;;;;;;0.20;0.20;;;10.20;84.60;;;;;;5011773;28;20026;-74
2021/10/31 04:03:19;;;;;;;0.30;0.30;;;10.00;86.80;;;;;;5015736;28;20057;-73
2021/10/31 04:05:45;;;;;;;0.20;0.20;;;9.70;87.30;;;;;;5015349;28;20029;-74
2021/10/31 04:08:10;;;;;;;0.20;0.20;;;9.60;87.10;;;;;;5015409;28;20041;-73
2021/10/31 04:10:36;;;;;;;0.30;0.30;;;9.50;87.40;;;;;;5014027;28;20026;-74
2021/10/31 04:13:02;;;;;;;0.20;0.20;;;9.50;88.90;;;;;;5015496;28;20033;-74
2021/10/31 04:15:28;;;;;;;0.60;0.60;;;9.30;88.80;;;;;;5015215;28;20506;-73
2021/10/31 04:17:54;;;;;;;0.22;0.22;;;9.30;89.20;;;;;;5015186;28;20540;-74
2021/10/31 04:20:19;;;;;;;0.68;0.68;;;9.20;89.90;;;;;;5015154;28;20018;-74
2021/10/31 04:22:46;;;;;;;0.30;0.30;;;9.10;90.00;;;;;;5015042;28;20030;-74
2021/10/31 04:25:12;;;;;;;0.30;0.30;;;9.10;90.30;;;;;;5015138;28;20426;-74
2021/10/31 04:27:38;;;;;;;0.20;0.20;;;9.10;90.30;;;;;;5015345;28;20026;-73
2021/10/31 04:30:05;;;;;;;0.30;0.30;;;8.90;90.20;;;;;;5015008;28;20045;-74
2021/10/31 04:32:31;;;;;;;0.40;0.40;;;8.90;90.70;;;;;;5014996;28;20496;-73
2021/10/31 04:34:57;;;;;;;0.60;0.50;;;8.90;90.40;;;;;;5013510;28;20022;-73
2021/10/31 04:37:24;;;;;;;0.20;0.20;;;9.10;91.00;;;;;;5014818;28;20021;-74
2021/10/31 04:39:50;;;;;;;0.20;0.20;;;9.30;90.40;;;;;;5014862;28;20018;-73
2021/10/31 04:42:16;;;;;;;0.38;0.38;;;9.30;89.40;;;;;;5014714;28;20080;-74
2021/10/31 04:44:42;;;;;;;0.20;0.20;;;9.30;90.00;;;;;;5014633;28;20371;-74
2021/10/31 04:47:08;;;;;;;1.40;1.40;;;9.30;89.90;;;;;;5014689;28;20029;-73
2021/10/31 04:49:34;;;;;;;0.30;0.30;;;9.10;89.60;;;;;;5014703;28;20026;-73
2021/10/31 04:52:01;;;;;;;0.20;0.20;;;9.00;90.30;;;;;;5014545;28;20394;-74
2021/10/31 04:54:27;;;;;;;0.25;0.25;;;9.10;90.60;;;;;;5014432;28;20053;-73
2021/10/31 04:56:53;;;;;;;0.30;0.30;;;9.10;90.00;;;;;;5014561;28;20025;-74
2021/10/31 04:59:19;;;;;;;0.30;0.30;;;8.90;90.20;;;;;;5014491;28;20030;-73
2021/10/31 05:01:45;;;;;;;0.30;0.30;;;8.80;89.50;;;;;;5014550;28;20045;-73
2021/10/31 05:04:11;;;;;;;0.63;0.63;;;8.60;90.30;;;;;;5014495;28;20512;-74
2021/10/31 05:06:38;;;;;;;0.20;0.20;;;8.50;90.30;;;;;;5013179;28;20028;-74
2021/10/31 05:09:04;;;;;;;0.20;0.20;;;8.60;90.80;;;;;;5014363;28;20045;-74
2021/10/31 05:11:30;;;;;;;0.22;0.22;;;8.50;91.20;;;;;;5014368;28;20026;-74
2021/10/31 05:13:55;;;;;;;0.30;0.30;;;8.50;91.10;;;;;;5013434;28;20029;-74
2021/10/31 05:16:21;;;;;;;0.30;0.30;;;8.40;91.20;;;;;;5014093;28;20029;-74
2021/10/31 05:18:47;;;;;;;0.30;0.30;;;8.40;91.40;;;;;;5014007;28;20026;-74
2021/10/31 05:21:13;;;;;;;0.30;0.30;;;8.20;91.40;;;;;;5013988;28;20084;-73
2021/10/31 05:23:39;;;;;;;0.30;0.30;;;8.20;92.40;;;;;;5013921;28;20053;-74
2021/10/31 05:26:04;;;;;;;0.22;0.22;;;8.40;92.60;;;;;;5013887;28;20470;-74
2021/10/31 05:28:31;;;;;;;0.20;0.20;;;8.40;92.30;;;;;;5013935;28;20113;-74
2021/10/31 05:30:57;;;;;;;0.20;0.20;;;8.70;92.00;;;;;;5013850;28;20470;-74
2021/10/31 05:33:24;;;;;;;0.28;0.28;;;8.60;91.80;;;;;;5013751;28;20033;-74
2021/10/31 05:35:51;;;;;;;0.20;0.20;;;8.60;92.10;;;;;;5013664;28;20156;-73
2021/10/31 05:38:19;;;;;;;0.20;0.20;;;8.50;92.10;;;;;;5013581;28;20050;-74
2021/10/31 05:40:47;;;;;;;0.30;0.30;;;8.60;92.30;;;;;;5013694;28;20026;-74
2021/10/31 05:43:13;;;;;;;0.20;0.20;;;8.60;91.70;;;;;;5013513;28;20033;-73
2021/10/31 05:45:38;;;;;;;0.30;0.30;;;8.70;91.60;;;;;;5013382;28;20026;-74
2021/10/31 05:48:04;;;;;;;0.35;0.35;;;8.50;91.60;;;;;;5013480;28;20109;-74
2021/10/31 05:50:30;;;;;;;0.30;0.30;;;8.40;92.40;;;;;;5013378;28;20026;-74
2021/10/31 05:52:56;;;;;;;0.20;0.20;;;8.70;92.70;;;;;;5013419;28;20501;-74
2021/10/31 05:55:22;;;;;;;0.20;0.20;;;8.60;92.30;;;;;;5013368;28;20038;-73
2021/10/31 05:57:48;;;;;;;0.30;0.30;;;8.50;92.40;;;;;;5013316;28;20494;-74
2021/10/31 06:00:15;;;;;;;0.80;0.80;;;8.60;92.50;;;;;;5013229;28;20093;-73
2021/10/31 06:02:42;;;;;;;0.30;0.30;;;8.70;91.80;;;;;;5013202;28;20138;-74
2021/10/31 06:05:11;;;;;;;0.32;0.32;;;8.50;92.30;;;;;;5013139;28;20037;-74
2021/10/31 06:07:37;;;;;;;0.25;0.25;;;8.50;92.70;;;;;;5013253;28;20022;-74
2021/10/31 06:10:03;;;;;;;0.30;0.30;;;8.60;92.60;;;;;;5013043;28;20025;-74
2021/10/31 06:12:29;;;;;;;0.47;0.47;;;8.40;92.10;;;;;;5013073;28;20108;-73
2021/10/31 06:14:56;;;;;;;0.20;0.20;;;8.50;92.90;;;;;;5012914;28;20088;-74
2021/10/31 06:17:21;;;;;;;0.30;0.30;;;8.50;92.60;;;;;;5012998;28;20057;-73
2021/10/31 06:19:47;;;;;;;0.20;0.20;;;8.60;93.10;;;;;;5013231;28;20058;-73
2021/10/31 06:22:13;;;;;;;1.05;1.05;;;8.80;92.80;;;;;;5012805;28;20434;-74
2021/10/31 06:24:39;;;;;;;0.30;0.30;;;8.80;92.80;;;;;;5012694;28;20026;-73
2021/10/31 06:27:05;;;;;;;0.30;0.30;;;8.80;92.20;;;;;;5012695;28;20026;-73
2021/10/31 06:29:31;;;;;;;0.25;0.25;;;8.80;92.80;;;;;;5012710;28;20033;-73
2021/10/31 06:31:57;;;;;;;0.38;0.38;;;8.90;93.00;;;;;;5012931;28;20033;-74
2021/10/31 06:34:23;;;;;;;0.20;0.20;;;8.70;93.10;;;;;;5012752;28;20386;-74
2021/10/31 06:36:48;;;;;;;0.43;0.43;;;8.60;93.70;;;;;;5012575;28;20411;-74
2021/10/31 06:39:14;;;;;;;1.75;0.75;;;8.50;94.10;;;;;;5012440;28;20037;-75
2021/10/31 06:41:40;;;;;;;0.20;0.20;;;8.50;94.60;;;;;;5012586;28;20057;-74
2021/10/31 06:44:06;;;;;;;0.28;0.28;;;8.60;94.80;;;;;;5012556;28;20053;-74
2021/10/31 06:46:32;;;;;;;0.20;0.20;;;8.70;95.30;;;;;;5011073;28;20029;-74
2021/10/31 06:48:59;;;;;;;0.25;0.25;;;8.90;95.30;;;;;;5012450;28;20030;-74
2021/10/31 06:51:25;;;;;;;0.30;0.30;;;8.90;95.50;;;;;;5012305;28;20076;-74
2021/10/31 06:53:51;;;;;;;0.20;0.20;;;9.00;95.10;;;;;;5011265;28;20038;-74
2021/10/31 06:56:18;;;;;;;0.20;0.20;;;9.20;95.20;;;;;;5012477;28;20136;-74
2021/10/31 06:58:44;;;;;;;0.60;0.60;;;9.50;94.20;;;;;;5011157;28;20105;-75
2021/10/31 07:01:10;;;;;;;0.20;0.20;;;9.70;93.40;;;;;;5012307;28;20033;-73
2021/10/31 07:03:36;;;;;;;0.20;0.20;;;9.70;92.90;;;;;;5012245;28;20052;-74
2021/10/31 07:06:04;;;;;;;0.20;0.20;;;9.70;93.00;;;;;;5010906;28;20026;-73
2021/10/31 07:08:30;;;;;;;0.25;0.25;;;9.70;93.10;;;;;;5012204;28;20018;-73
2021/10/31 07:10:56;;;;;;;0.30;0.30;;;9.80;92.80;;;;;;5011277;28;20033;-73
2021/10/31 07:13:22;;;;;;;0.30;0.30;;;9.80;93.40;;;;;;5012338;28;20417;-74
2021/10/31 07:15:48;;;;;;;0.20;0.20;;;10.00;93.30;;;;;;5012136;28;20036;-74
2021/10/31 07:18:14;;;;;;;0.20;0.20;;;10.20;92.00;;;;;;5012245;28;20066;-73
2021/10/31 07:20:40;;;;;;;0.20;0.20;;;10.40;91.60;;;;;;5012355;28;20018;-73
2021/10/31 07:23:06;;;;;;;0.20;0.20;;;10.50;90.90;;;;;;5012064;28;20506;-74
2021/10/31 07:25:32;;;;;;;0.20;0.20;;;10.60;90.80;;;;;;5011857;28;20129;-74
2021/10/31 07:27:57;;;;;;;0.20;0.20;;;10.70;91.00;;;;;;5011922;28;20390;-73
2021/10/31 07:30:23;;;;;;;0.20;0.20;;;10.80;90.50;;;;;;5017210;28;20022;-73
2021/10/31 07:32:57;;;;;;;0.20;0.20;;;10.90;90.00;;;;;;5014311;28;20284;-73
2021/10/31 07:35:23;;;;;;;0.20;0.20;;;11.00;90.10;;;;;;4992238;28;20035;-74
2021/10/31 07:37:50;;;;;;;0.20;0.20;;;11.20;90.00;;;;;;5007179;28;20049;-74
2021/10/31 07:40:16;;;;;;;0.20;0.20;;;11.30;88.90;;;;;;5035570;28;20032;-74
2021/10/31 07:42:42;;;;;;;0.20;0.20;;;11.50;88.80;;;;;;5035343;28;20108;-74
2021/10/31 07:45:08;;;;;;;0.20;0.20;;;11.50;89.10;;;;;;5035530;28;20072;-74
2021/10/31 07:47:34;;;;;;;0.20;0.20;;;11.60;88.40;;;;;;5019774;28;20021;-74
2021/10/31 07:50:00;;;;;;;0.20;0.20;;;11.60;88.90;;;;;;5030681;28;20519;-74
2021/10/31 07:52:25;;;;;;;0.20;0.20;;;11.70;89.50;;;;;;5015500;28;20034;-74
2021/10/31 07:54:51;;;;;;;0.35;0.35;;;11.80;90.10;;;;;;5015531;28;20038;-75
2021/10/31 07:57:23;;;;;;;0.10;0.10;;;11.90;88.90;;;;;;5014266;28;20041;-74
2021/10/31 07:59:49;;;;;;;0.22;0.22;;;12.00;88.80;;;;;;5015589;28;20022;-74
2021/10/31 08:02:15;;;;;;;0.20;0.20;;;12.10;88.80;;;;;;5014069;28;20056;-75
2021/10/31 08:04:40;;;;;;;0.20;0.20;;;12.10;88.80;;;;;;5015411;28;20029;-74
2021/10/31 08:07:06;;;;;;;0.20;0.20;;;12.20;88.90;;;;;;5015424;28;20558;-74
2021/10/31 08:09:32;;;;;;;0.20;0.20;;;12.30;89.80;;;;;;5015342;28;20262;-74
2021/10/31 08:11:58;;;;;;;0.17;0.17;;;12.40;90.00;;;;;;5015355;28;20026;-74
2021/10/31 08:14:24;;;;;;;0.20;0.20;;;12.50;89.90;;;;;;5015248;28;20550;-74
2021/10/31 08:16:49;;;;;;;0.20;0.20;;;12.60;90.10;;;;;;5015166;28;20046;-74
2021/10/31 08:19:15;;;;;;;0.20;0.20;;;12.70;89.70;;;;;;5015195;28;20026;-74
2021/10/31 08:21:41;;;;;;;0.10;0.10;;;12.70;89.10;;;;;;5015166;28;20030;-74
2021/10/31 08:24:08;;;;;;;0.20;0.20;;;12.80;88.90;;;;;;5015048;28;20032;-74
2021/10/31 08:26:34;;;;;;;0.20;0.20;;;12.90;87.50;;;;;;5014862;28;20017;-74
2021/10/31 08:29:03;;;;;;;0.10;0.10;;;12.90;85.50;;;;;;5015411;28;20026;-74
2021/10/31 08:31:32;;;;;;;0.20;0.20;;;12.90;83.80;;;;;;5014916;28;20080;-74
2021/10/31 08:34:00;;;;;;;0.20;0.20;;;13.00;84.10;;;;;;5015014;28;20026;-74
2021/10/31 08:36:27;;;;;;;0.20;0.20;;;13.00;84.00;;;;;;5014705;28;20504;-74
2021/10/31 08:38:53;;;;;;;0.20;0.20;;;13.10;81.60;;;;;;5014744;28;20482;-74
2021/10/31 08:41:20;;;;;;;0.20;0.20;;;13.20;79.50;;;;;;5014790;28;20029;-74
2021/10/31 08:43:46;;;;;;;0.20;0.20;;;13.30;79.80;;;;;;5014569;28;20026;-74
2021/10/31 08:46:13;;;;;;;0.17;0.17;;;13.40;80.50;;;;;;5014632;28;20049;-74
2021/10/31 08:48:39;;;;;;;0.10;0.10;;;13.60;79.60;;;;;;5013422;28;20030;-74
2021/10/31 08:51:05;;;;;;;0.55;0.55;;;13.60;78.80;;;;;;5014960;28;20033;-74
2021/10/31 08:53:32;;;;;;;0.20;0.20;;;13.70;80.20;;;;;;5014255;28;20395;-75
2021/10/31 08:55:59;;;;;;;0.22;0.22;;;13.80;79.80;;;;;;5013968;28;20033;-74
2021/10/31 08:58:26;;;;;;;0.20;0.20;;;13.80;80.20;;;;;;5014531;28;20033;-74
2021/10/31 09:00:52;;;;;;;0.20;0.20;;;13.80;80.50;;;;;;5013783;28;20046;-75
2021/10/31 09:03:19;;;;;;;0.20;0.20;;;14.00;78.30;;;;;;5023057;28;20528;-74
2021/10/31 09:05:45;;;;;;;0.20;0.20;;;14.10;77.20;;;;;;5014363;28;20033;-74
2021/10/31 09:08:11;;;;;;;0.20;0.20;;;14.30;75.70;;;;;;5013961;28;20029;-74
2021/10/31 09:10:38;;;;;;;0.10;0.10;;;14.50;75.40;;;;;;5012605;28;20030;-74
2021/10/31 09:13:05;;;;;;;0.20;0.20;;;14.60;75.90;;;;;;4993274;28;20033;-74
2021/10/31 09:15:31;;;;;;;0.70;0.70;;;14.70;76.00;;;;;;4997751;28;20474;-74
2021/10/31 09:18:01;;;;;;;1.88;0.95;;;14.80;73.50;;;;;;5014051;28;20033;-74
2021/10/31 09:20:27;;;;;;;0.20;0.20;;;14.90;73.60;;;;;;5014087;28;20036;-74
2021/10/31 09:22:55;;;;;;;0.17;0.17;;;15.10;72.70;;;;;;5013961;28;20030;-74
2021/10/31 09:25:22;;;;;;;0.20;0.20;;;15.40;72.20;;;;;;5013666;28;20032;-74
2021/10/31 09:27:48;;;;;;;0.10;0.10;;;15.70;71.00;;;;;;5013925;28;20492;-75
2021/10/31 09:30:15;;;;;;;0.22;0.22;;;16.10;70.60;;;;;;5012778;28;20040;-74
2021/10/31 09:32:44;;;;;;;0.10;0.10;;;16.70;67.70;;;;;;5013845;28;20068;-74
2021/10/31 09:35:19;;;;;;;0.10;0.10;;;17.20;65.40;;;;;;5005347;28;20363;-75
2021/10/31 09:37:46;;;;;;;0.10;0.10;;;17.80;63.90;;;;;;5033487;28;20029;-74
2021/10/31 09:40:13;;;;;;;0.20;0.20;;;18.30;61.00;;;;;;5033365;28;20469;-74
2021/10/31 09:42:39;;;;;;;0.20;0.20;;;18.90;59.80;;;;;;5016935;28;20018;-74
2021/10/31 09:45:07;;;;;;;0.10;0.10;;;19.30;58.20;;;;;;5013480;28;20026;-74
2021/10/31 09:47:32;;;;;;;0.20;0.20;;;19.80;56.00;;;;;;5013429;28;20018;-74
2021/10/31 09:49:58;;;;;;;0.00;0.00;;;20.10;56.50;;;;;;5013331;28;20109;-75
2021/10/31 09:52:26;;;;;;;0.30;0.30;;;20.60;54.90;;;;;;5013228;28;20032;-75
2021/10/31 09:54:52;;;;;;;0.10;0.10;;;21.20;54.60;;;;;;5026180;23;20104;-75
2021/10/31 09:57:18;;;;;;;0.00;0.00;;;21.40;53.70;;;;;;5013264;28;20496;-75
2021/10/31 09:59:50;;;;;;;0.10;0.10;;;21.30;54.00;;;;;;5011493;28;20022;-75
2021/10/31 10:02:46;;;;;;;0.10;0.10;;;21.30;53.70;;;;;;5011960;28;20030;-75
2021/10/31 10:05:24;;;;;;;0.50;0.35;;;21.60;51.20;;;;;;5013497;28;20022;-75
2021/10/31 10:08:22;;;;;;;0.10;0.10;;;21.20;49.40;;;;;;5012870;28;20105;-75
2021/10/31 10:10:50;;;;;;;0.00;0.00;;;21.30;50.70;;;;;;4950346;28;20480;-75
2021/10/31 10:13:27;;;;;;;0.20;0.20;;;22.00;50.20;;;;;;4993534;28;20038;-75
2021/10/31 10:16:30;;;;;;;0.10;0.10;;;21.90;49.10;;;;;;4993581;28;20161;-75
2021/10/31 10:18:57;;;;;;;0.20;0.20;;;22.10;49.70;;;;;;4991800;28;20030;-75
2021/10/31 10:21:25;;;;;;;0.03;0.03;;;22.40;49.40;;;;;;4993352;28;20546;-75
2021/10/31 10:23:56;;;;;;;0.00;0.00;;;22.70;49.40;;;;;;4975624;28;20030;-75
2021/10/31 10:26:42;;;;;;;0.00;0.00;;;22.80;47.90;;;;;;4991755;28;20177;-75
2021/10/31 10:29:17;;;;;;;0.17;0.17;;;23.20;47.70;;;;;;4991895;28;20035;-76
2021/10/31 10:32:04;;;;;;;0.08;0.08;;;23.40;47.60;;;;;;4993200;28;20023;-75
2021/10/31 10:34:41;;;;;;;0.25;0.25;;;23.50;47.10;;;;;;4992892;28;20092;-75
2021/10/31 10:37:19;;;;;;;0.00;0.00;;;22.90;48.30;;;;;;4993090;28;20076;-75
2021/10/31 10:39:57;;;;;;;0.20;0.20;;;23.20;46.90;;;;;;4991637;28;20026;-75
2021/10/31 10:42:31;;;;;;;0.10;0.10;;;23.80;46.80;;;;;;4975155;28;20451;-75
2021/10/31 10:45:04;;;;;;;0.08;0.08;;;23.70;46.90;;;;;;4991421;28;20022;-75
2021/10/31 10:47:46;;;;;;;0.10;0.10;;;24.10;45.70;;;;;;4992647;28;20030;-75
2021/10/31 10:50:16;;;;;;;;;;;24.10;45.00;;;;;;4993055;28;20030;-75
2021/10/31 10:52:43;;;;;;;0.13;0.13;;;24.70;44.80;;;;;;4991416;28;19912;-75
2021/10/31 10:55:18;;;;;;;0.03;0.03;;;24.40;44.20;;;;;;4992496;28;20061;-74
2021/10/31 10:57:53;;;;;;;0.68;0.50;;;24.40;44.70;;;;;;4992318;28;20427;-74
2021/10/31 11:00:37;;;;;;;0.00;0.00;;;24.70;44.90;;;;;;4992580;28;20050;-75
2021/10/31 11:03:14;;;;;;;0.00;0.00;;;25.00;44.40;;;;;;4992640;28;20033;-75
2021/10/31 11:05:45;;;;;;;0.90;0.90;;;25.00;43.80;;;;;;4992565;28;20101;-75
2021/10/31 11:08:12;;;;;;;0.30;0.30;;;25.10;43.30;;;;;;4992561;28;20034;-75
2021/10/31 11:10:54;;;;;;;0.00;0.00;;;25.20;43.40;;;;;;5029839;28;20025;-75
2021/10/31 11:13:28;;;;;;;0.10;0.10;;;25.30;42.90;;;;;;5030677;28;20087;-75
2021/10/31 11:15:55;;;;;;;0.00;0.00;;;25.10;43.30;;;;;;5021299;28;20398;-75
2021/10/31 11:18:21;;;;;;;0.08;0.08;;;25.30;43.10;;;;;;4993905;28;20022;-75
2021/10/31 11:20:47;;;;;;;0.25;0.25;;;25.30;43.10;;;;;;5010521;28;20088;-75
2021/10/31 11:23:16;;;;;;;0.00;0.00;;;25.40;43.10;;;;;;5011855;28;20509;-75
2021/10/31 11:25:44;;;;;;;0.10;0.10;;;25.80;42.70;;;;;;5010750;28;20022;-75
2021/10/31 11:28:13;;;;;;;0.10;0.10;;;24.80;44.40;;;;;;5012007;28;20064;-75
2021/10/31 11:30:41;;;;;;;3.85;0.43;;;25.20;43.80;;;;;;5011540;28;20024;-75
2021/10/31 11:33:09;;;;;;;0.00;0.00;;;25.40;43.50;;;;;;5010657;28;20390;-75
2021/10/31 11:35:36;;;;;;;0.00;0.00;;;25.70;43.00;;;;;;5010498;28;20034;-75
2021/10/31 11:38:05;;;;;;;1.65;0.70;;;26.20;42.30;;;;;;5010724;28;20056;-75
2021/10/31 11:40:38;;;;;;;0.28;0.28;;;26.40;41.60;;;;;;5010521;28;20026;-75
2021/10/31 11:43:16;;;;;;;0.00;0.00;;;26.60;41.50;;;;;;5011445;28;20101;-75
2021/10/31 11:45:44;;;;;;;0.10;0.10;;;26.40;41.30;;;;;;5026830;28;20021;-75
2021/10/31 11:48:31;;;;;;;2.42;1.38;;;25.80;42.60;;;;;;5010267;28;20122;-75
2021/10/31 11:51:00;;;;;;;0.30;0.20;;;25.60;44.20;;;;;;5011767;28;20539;-75
2021/10/31 11:53:31;;;;;;;0.77;0.52;;;26.10;41.90;;;;;;5010210;28;20217;-75
2021/10/31 11:56:02;;;;;;;0.32;0.32;;;26.50;40.60;;;;;;5011657;28;20033;-75
2021/10/31 11:58:31;;;;;;;0.75;0.75;;;26.60;40.90;;;;;;5010268;28;20029;-75
2021/10/31 12:01:06;;;;;;;0.95;0.52;;;26.70;40.80;;;;;;5011711;28;20485;-75
2021/10/31 12:03:32;;;;;;;0.00;0.00;;;26.50;40.60;;;;;;5026876;28;20394;-75
2021/10/31 12:06:14;;;;;;;0.00;0.00;;;26.70;40.90;;;;;;5011226;28;20032;-75
2021/10/31 12:08:48;;;;;;;0.10;0.10;;;27.10;40.10;;;;;;5012950;28;20014;-75
2021/10/31 12:11:14;;;;;;;0.28;0.28;;;26.60;40.30;;;;;;5031308;28;20435;-75
2021/10/31 12:13:51;;;;;;;2.88;0.52;;;26.20;40.60;;;;;;5030017;28;20053;-75
2021/10/31 12:16:17;;;;;;;0.17;0.17;;;26.50;40.70;;;;;;5018893;28;20358;-75
2021/10/31 12:18:50;;;;;;;0.00;0.00;;;26.40;40.40;;;;;;5026477;28;20101;-75
2021/10/31 12:21:29;;;;;;;0.10;0.10;;;26.50;40.70;;;;;;5009964;28;20026;-75
2021/10/31 12:24:02;;;;;;;0.03;0.03;;;25.80;41.40;;;;;;5014035;28;20070;-75
2021/10/31 12:26:37;;;;;;;0.00;0.00;;;25.70;41.70;;;;;;5014266;28;20254;-75
2021/10/31 12:29:19;;;;;;;0.82;0.45;;;26.00;41.00;;;;;;5013395;28;20036;-75
2021/10/31 12:32:06;;;;;;;0.55;0.40;;;25.90;40.60;;;;;;5015201;28;20504;-75
2021/10/31 12:34:40;;;;;;;1.05;0.57;;;26.00;41.00;;;;;;4997059;28;20026;-75
2021/10/31 12:37:19;;;;;;;0.03;0.03;;;25.90;40.10;;;;;;5015248;28;20033;-75
2021/10/31 12:39:45;;;;;;;0.00;0.00;;;26.40;40.60;;;;;;5014714;28;20022;-75
2021/10/31 12:42:12;;;;;;;0.15;0.10;;;26.50;39.80;;;;;;4997138;28;20040;-75
2021/10/31 12:44:43;;;;;;;0.22;0.20;;;26.70;39.50;;;;;;5014728;28;20101;-75
2021/10/31 12:47:18;;;;;;;0.00;0.00;;;26.60;39.60;;;;;;5014782;28;20489;-75
2021/10/31 12:49:46;;;;;;;0.30;0.30;;;26.30;40.10;;;;;;5013190;28;20030;-75
2021/10/31 12:52:27;;;;;;;0.00;0.00;;;26.30;40.30;;;;;;5014982;28;20026;-75
2021/10/31 12:55:14;;;;;;;0.03;0.03;;;26.40;40.10;;;;;;5014199;28;20044;-75
2021/10/31 12:57:58;;;;;;;0.30;0.30;;;26.40;39.90;;;;;;5014443;28;20037;-75
2021/10/31 13:00:26;;;;;;;0.10;0.10;;;26.00;40.60;;;;;;5014846;28;20033;-75
2021/10/31 13:02:55;;;;;;;0.10;0.10;;;25.70;41.60;;;;;;5014179;28;20030;-75